Time;durP1;ratioP1;P1;durP2;ratioP2;P2;SDS_P1;SDS_P2;PMS_P1;PMS_P2;Temp;Humidity;BMP_temperature;BMP_pressure;BME280_temperature;BME280_humidity;BME280_pressure;Samples;Min_cycle;Max_cycle;Signal;HPM_P1;HPM_P2
2022/01/23 00:01:10;;;;;;;28.08;12.55;;;2.30;99.90;;;;;;5086050;28;20113;-49
2022/01/23 00:04:31;;;;;;;35.03;15.52;;;2.30;99.90;;;;;;5101713;28;20039;-49
2022/01/23 00:07:57;;;;;;;28.38;12.85;;;2.30;99.90;;;;;;5089223;28;20090;-47
2022/01/23 00:11:26;;;;;;;27.92;12.40;;;2.30;99.90;;;;;;5107988;28;20039;-48
2022/01/23 00:18:12;;;;;;;32.10;12.50;;;2.40;99.90;;;;;;5090846;28;20058;-47
2022/01/23 00:21:39;;;;;;;23.85;10.93;;;2.40;99.90;;;;;;5087823;28;20511;-51
2022/01/23 00:32:00;;;;;;;29.35;12.23;;;2.50;99.90;;;;;;5048373;28;20052;-49
2022/01/23 00:35:26;;;;;;;39.22;14.23;;;2.50;99.90;;;;;;5105724;28;20146;-49
2022/01/23 00:38:51;;;;;;;30.38;11.25;;;2.50;99.90;;;;;;5107508;28;20035;-48
2022/01/23 00:42:17;;;;;;;28.60;11.57;;;2.40;99.90;;;;;;5105669;28;20144;-49
2022/01/23 00:45:45;;;;;;;35.15;11.82;;;2.50;99.90;;;;;;5102555;28;20043;-50
2022/01/23 00:52:17;;;;;;;33.65;12.98;;;2.50;99.90;;;;;;5104988;28;20034;-46
2022/01/23 00:55:41;;;;;;;32.55;12.40;;;2.50;99.90;;;;;;5091904;28;20587;-48
2022/01/23 00:59:06;;;;;;;41.63;15.60;;;2.50;99.90;;;;;;5101156;28;20085;-51
2022/01/23 01:02:31;;;;;;;37.20;15.52;;;2.60;99.90;;;;;;5099210;28;20039;-46
2022/01/23 01:05:57;;;;;;;51.83;15.75;;;2.60;99.90;;;;;;5094441;28;20048;-49
2022/01/23 01:09:22;;;;;;;49.80;14.82;;;2.60;99.90;;;;;;5104745;28;20038;-46
2022/01/23 01:12:50;;;;;;;35.25;12.73;;;2.70;99.90;;;;;;5100665;28;20043;-46
2022/01/23 01:16:40;;;;;;;52.28;15.77;;;2.70;99.90;;;;;;5101972;28;20085;-46
2022/01/23 01:33:33;;;;;;;37.55;12.98;;;2.80;99.90;;;;;;5104681;28;20093;-48
2022/01/23 01:36:51;;;;;;;47.38;15.52;;;2.80;99.90;;;;;;5098611;28;20036;-46
2022/01/23 01:40:13;;;;;;;45.30;15.05;;;2.80;99.90;;;;;;5109345;28;20035;-46
2022/01/23 01:43:39;;;;;;;38.65;14.18;;;2.90;99.90;;;;;;5101727;28;20031;-47
2022/01/23 01:47:04;;;;;;;44.83;13.88;;;2.90;99.90;;;;;;5104097;28;20079;-51
2022/01/23 01:50:29;;;;;;;42.40;14.77;;;3.00;99.90;;;;;;5104392;28;20039;-47
2022/01/23 01:54:02;;;;;;;42.90;16.23;;;3.00;99.90;;;;;;5091396;28;20046;-48
2022/01/23 01:57:20;;;;;;;38.35;12.80;;;3.00;99.90;;;;;;5097524;28;20498;-47
2022/01/23 02:00:54;;;;;;;30.80;12.43;;;3.10;99.90;;;;;;5099835;28;20042;-46
2022/01/23 02:10:50;;;;;;;24.83;11.50;;;3.10;99.90;;;;;;5101140;28;20039;-49
2022/01/23 02:14:31;;;;;;;31.48;12.50;;;3.20;99.90;;;;;;5097757;28;20032;-46
2022/01/23 02:18:14;;;;;;;38.97;14.50;;;3.20;99.90;;;;;;5096257;28;20124;-49
2022/01/23 02:52:04;;;;;;;10.68;5.32;;;3.60;99.90;;;;;;5102144;28;20434;-47
2022/01/23 02:55:41;;;;;;;8.80;5.57;;;3.70;99.90;;;;;;5095850;28;20031;-46
2022/01/23 02:58:57;;;;;;;13.80;6.40;;;3.80;99.90;;;;;;5091677;28;20405;-47
2022/01/23 03:08:58;;;;;;;7.65;5.10;;;3.80;99.90;;;;;;5089746;28;20510;-47
2022/01/23 03:12:11;;;;;;;8.95;5.10;;;3.90;99.90;;;;;;5100069;28;20035;-49
2022/01/23 03:15:00;;;;;;;10.38;5.55;;;3.90;99.90;;;;;;5101102;28;20032;-63
2022/01/23 03:28:35;;;;;;;10.25;5.65;;;4.10;99.90;;;;;;5106575;28;20073;-63
2022/01/23 03:33:29;;;;;;;8.25;4.88;;;4.10;99.90;;;;;;5103535;28;20077;-63
2022/01/23 03:35:55;;;;;;;8.48;4.43;;;4.20;99.90;;;;;;5111519;28;20027;-63
2022/01/23 03:38:20;;;;;;;6.88;3.97;;;4.20;99.90;;;;;;5109882;28;20015;-63
2022/01/23 03:40:46;;;;;;;6.30;3.85;;;4.20;99.90;;;;;;5112062;28;20031;-63
2022/01/23 03:43:14;;;;;;;6.75;4.35;;;4.20;99.90;;;;;;5102809;28;20054;-63
2022/01/23 03:50:37;;;;;;;6.30;3.85;;;4.30;99.90;;;;;;5111940;28;20479;-63
2022/01/23 03:53:04;;;;;;;8.93;4.20;;;4.30;99.90;;;;;;5109767;28;20028;-63
2022/01/23 03:55:30;;;;;;;7.22;3.67;;;4.30;99.90;;;;;;5111927;28;20494;-63
2022/01/23 03:57:56;;;;;;;5.22;3.50;;;4.30;99.90;;;;;;5109610;28;20106;-63
2022/01/23 04:00:21;;;;;;;6.90;4.55;;;4.30;99.90;;;;;;5111816;28;20020;-63
2022/01/23 04:02:47;;;;;;;5.95;3.33;;;4.30;99.90;;;;;;5111521;28;20024;-62
2022/01/23 04:05:12;;;;;;;5.30;3.38;;;4.40;99.90;;;;;;5109571;28;20058;-63
2022/01/23 04:07:38;;;;;;;6.38;3.75;;;4.40;99.90;;;;;;5111426;28;20364;-63
2022/01/23 04:10:04;;;;;;;6.13;3.85;;;4.30;99.90;;;;;;5090617;28;20032;-62
2022/01/23 04:12:49;;;;;;;6.15;3.63;;;4.40;99.90;;;;;;5092592;28;20388;-63
2022/01/23 04:15:26;;;;;;;5.63;3.30;;;4.50;99.90;;;;;;5091176;28;20132;-62
2022/01/23 04:33:46;;;;;;;6.47;3.90;;;4.60;99.90;;;;;;5095957;28;20055;-63
2022/01/23 04:48:48;;;;;;;6.40;3.85;;;4.60;99.90;;;;;;5090554;28;20242;-63
2022/01/23 05:01:03;;;;;;;6.18;3.00;;;4.60;99.90;;;;;;5096254;28;20029;-62
2022/01/23 05:06:03;;;;;;;5.60;3.53;;;4.60;99.90;;;;;;5108561;28;20096;-62
2022/01/23 05:08:32;;;;;;;5.55;3.35;;;4.60;99.90;;;;;;5110896;28;20019;-63
2022/01/23 05:10:59;;;;;;;6.18;3.67;;;4.60;99.90;;;;;;5108337;28;20256;-62
2022/01/23 05:13:29;;;;;;;3.80;3.10;;;4.70;99.90;;;;;;5110456;28;20024;-62
2022/01/23 05:15:55;;;;;;;5.07;3.30;;;4.60;99.90;;;;;;5108537;28;20060;-62
2022/01/23 05:18:21;;;;;;;5.55;3.50;;;4.70;99.90;;;;;;5110020;28;20058;-62
2022/01/23 05:20:52;;;;;;;4.95;3.38;;;4.70;99.90;;;;;;5108155;28;20076;-62
2022/01/23 05:23:18;;;;;;;5.10;3.28;;;4.60;99.90;;;;;;5110219;28;20023;-62
2022/01/23 05:25:43;;;;;;;9.00;4.13;;;4.70;99.90;;;;;;5108135;28;20023;-62
2022/01/23 05:28:09;;;;;;;5.57;3.50;;;4.70;99.90;;;;;;5110093;28;20334;-63
2022/01/23 05:30:36;;;;;;;5.82;3.78;;;4.70;99.90;;;;;;5108130;28;20024;-62
2022/01/23 05:33:02;;;;;;;5.47;3.20;;;4.70;99.90;;;;;;5109839;28;20099;-62
2022/01/23 05:35:29;;;;;;;4.40;3.05;;;4.70;99.90;;;;;;5108016;28;20020;-62
2022/01/23 05:37:55;;;;;;;4.72;3.15;;;4.70;99.90;;;;;;5110005;28;20027;-63
2022/01/23 05:40:23;;;;;;;4.55;2.90;;;4.70;99.90;;;;;;5107700;28;20520;-62
2022/01/23 05:42:49;;;;;;;6.53;3.63;;;4.80;99.90;;;;;;5105894;28;20032;-62
2022/01/23 05:45:15;;;;;;;5.75;3.25;;;4.70;99.90;;;;;;5107586;28;20088;-62
2022/01/23 05:47:40;;;;;;;4.97;3.38;;;4.80;99.90;;;;;;5109827;28;20027;-62
2022/01/23 05:50:07;;;;;;;5.22;3.30;;;4.80;99.90;;;;;;5107776;28;20372;-62
2022/01/23 05:52:33;;;;;;;6.28;3.97;;;4.70;99.90;;;;;;5109766;28;20024;-63
2022/01/23 05:54:59;;;;;;;6.13;3.67;;;4.80;99.90;;;;;;5109712;28;20418;-62
2022/01/23 05:57:24;;;;;;;5.22;3.42;;;4.80;99.90;;;;;;5107171;28;20027;-63
2022/01/23 05:59:50;;;;;;;5.10;3.33;;;4.80;99.90;;;;;;5109456;28;20383;-62
2022/01/23 06:02:16;;;;;;;5.05;2.97;;;4.80;99.90;;;;;;5089294;28;20067;-63
2022/01/23 06:04:41;;;;;;;6.60;3.40;;;4.80;99.90;;;;;;5108803;28;20647;-62
2022/01/23 06:07:07;;;;;;;6.38;3.55;;;4.80;99.90;;;;;;5107671;28;20417;-63
2022/01/23 06:09:32;;;;;;;6.55;3.53;;;4.80;99.90;;;;;;5104422;28;20387;-64
2022/01/23 06:11:58;;;;;;;6.18;3.95;;;4.80;99.90;;;;;;5108447;28;20019;-62
2022/01/23 06:14:25;;;;;;;5.80;3.33;;;4.70;99.90;;;;;;5105991;28;20036;-62
2022/01/23 06:16:51;;;;;;;7.65;4.07;;;4.80;99.90;;;;;;5108350;28;20020;-63
2022/01/23 06:19:16;;;;;;;6.82;3.85;;;4.80;99.90;;;;;;5104116;28;20044;-64
2022/01/23 06:21:42;;;;;;;5.25;3.38;;;4.80;99.90;;;;;;5092204;28;20027;-62
2022/01/23 06:24:15;;;;;;;6.47;3.53;;;4.80;99.90;;;;;;5106148;28;20499;-62
2022/01/23 06:26:48;;;;;;;7.72;4.18;;;4.80;99.90;;;;;;5108013;28;20035;-64
2022/01/23 06:29:16;;;;;;;6.55;3.95;;;4.80;99.90;;;;;;5087654;28;20032;-63
2022/01/23 06:31:46;;;;;;;7.18;4.25;;;4.80;99.90;;;;;;5107926;28;20062;-61
2022/01/23 06:34:11;;;;;;;6.40;4.30;;;4.80;99.90;;;;;;5105720;28;20027;-64
2022/01/23 06:36:37;;;;;;;6.40;3.92;;;4.80;99.90;;;;;;5108418;28;20122;-62
2022/01/23 06:39:06;;;;;;;6.68;4.47;;;4.80;99.90;;;;;;5107453;28;20020;-65
2022/01/23 06:41:31;;;;;;;6.65;4.00;;;4.80;99.90;;;;;;5087563;28;20243;-62
2022/01/23 06:43:57;;;;;;;5.30;3.53;;;4.80;99.90;;;;;;5103512;28;20035;-62
2022/01/23 06:46:23;;;;;;;6.47;4.18;;;4.80;99.90;;;;;;5086420;28;20123;-63
2022/01/23 06:48:49;;;;;;;8.13;4.55;;;4.80;99.90;;;;;;5107195;28;20123;-62
2022/01/23 06:51:14;;;;;;;8.00;5.00;;;4.70;99.90;;;;;;5105735;28;20039;-62
2022/01/23 06:53:40;;;;;;;8.57;5.00;;;4.70;99.90;;;;;;5107769;28;20019;-60
2022/01/23 06:56:05;;;;;;;8.23;4.47;;;4.70;99.90;;;;;;5088964;28;20026;-62
2022/01/23 06:58:31;;;;;;;8.73;4.80;;;4.70;99.90;;;;;;5107087;28;20778;-62
2022/01/23 07:00:56;;;;;;;7.35;4.30;;;4.70;99.90;;;;;;5105922;28;20032;-63
2022/01/23 07:03:21;;;;;;;6.68;3.78;;;4.80;99.90;;;;;;5107595;28;20070;-62
2022/01/23 07:05:47;;;;;;;7.43;4.40;;;4.80;99.90;;;;;;5091187;28;20169;-62
2022/01/23 07:08:12;;;;;;;9.15;5.18;;;4.80;99.90;;;;;;5107069;28;20646;-64
2022/01/23 07:10:38;;;;;;;8.13;4.57;;;4.80;99.90;;;;;;5109905;28;20036;-61
2022/01/23 07:13:03;;;;;;;9.23;5.32;;;4.80;99.90;;;;;;5111564;28;20035;-63
2022/01/23 07:15:29;;;;;;;7.30;4.45;;;4.80;99.90;;;;;;5097464;28;20101;-62
2022/01/23 07:17:55;;;;;;;6.65;3.75;;;4.80;99.90;;;;;;5110487;28;20038;-62
2022/01/23 07:20:20;;;;;;;7.05;3.95;;;4.80;99.90;;;;;;5109189;28;20508;-64
2022/01/23 07:22:46;;;;;;;6.65;4.13;;;4.80;99.90;;;;;;5111420;28;20118;-61
2022/01/23 07:25:11;;;;;;;7.82;3.83;;;4.80;99.90;;;;;;5109221;28;20039;-65
2022/01/23 07:27:43;;;;;;;7.78;4.65;;;4.90;99.90;;;;;;5111141;28;20076;-64
2022/01/23 07:30:21;;;;;;;6.68;4.45;;;4.90;99.90;;;;;;5098300;28;20039;-63
2022/01/23 07:32:47;;;;;;;7.47;4.47;;;4.90;99.90;;;;;;5111217;28;20045;-64
2022/01/23 07:35:12;;;;;;;6.50;3.83;;;4.90;99.90;;;;;;5109235;28;20110;-62
2022/01/23 07:37:38;;;;;;;7.97;4.93;;;5.00;99.90;;;;;;5110978;28;20101;-63
2022/01/23 07:40:04;;;;;;;9.38;5.10;;;5.00;99.90;;;;;;5108970;28;20415;-62
2022/01/23 07:42:29;;;;;;;6.65;4.40;;;5.00;99.90;;;;;;5106814;28;20019;-63
2022/01/23 07:44:55;;;;;;;7.82;4.53;;;5.00;99.90;;;;;;5109204;28;20066;-62
2022/01/23 07:47:22;;;;;;;8.15;3.80;;;5.00;99.90;;;;;;5111045;28;20762;-63
2022/01/23 07:49:49;;;;;;;8.82;4.47;;;5.10;99.90;;;;;;5108697;28;20030;-63
2022/01/23 07:52:18;;;;;;;5.45;3.70;;;5.10;99.90;;;;;;5110742;28;20095;-63
2022/01/23 07:54:44;;;;;;;10.70;5.32;;;5.10;99.90;;;;;;5108641;28;20035;-64
2022/01/23 07:57:10;;;;;;;7.90;4.53;;;5.20;99.90;;;;;;5098630;28;20069;-66
2022/01/23 07:59:35;;;;;;;7.38;4.72;;;5.20;99.90;;;;;;5110223;28;20437;-63
2022/01/23 08:02:01;;;;;;;8.20;5.05;;;5.30;99.90;;;;;;5108485;28;20027;-66
2022/01/23 08:04:27;;;;;;;5.85;3.90;;;5.30;99.90;;;;;;5110534;28;20043;-64
2022/01/23 08:07:11;;;;;;;7.35;4.50;;;5.40;99.90;;;;;;5108866;28;20434;-68
2022/01/23 08:09:36;;;;;;;6.50;4.18;;;5.40;99.90;;;;;;5110878;28;20028;-64
2022/01/23 08:12:02;;;;;;;6.50;4.63;;;5.50;99.90;;;;;;5107864;28;20413;-64
2022/01/23 08:14:28;;;;;;;8.10;4.97;;;5.50;99.90;;;;;;5110570;28;20028;-63
2022/01/23 08:16:53;;;;;;;8.57;4.88;;;5.60;99.90;;;;;;5108104;28;20084;-61
2022/01/23 08:19:19;;;;;;;7.78;5.13;;;5.60;99.90;;;;;;5109531;28;20541;-63
2022/01/23 08:21:44;;;;;;;7.60;4.68;;;5.70;99.90;;;;;;5108741;28;20028;-61
2022/01/23 08:24:11;;;;;;;7.60;4.43;;;5.70;99.90;;;;;;5110491;28;20050;-61
2022/01/23 08:26:37;;;;;;;6.68;4.82;;;5.70;99.90;;;;;;5108586;28;20032;-61
2022/01/23 08:29:07;;;;;;;8.40;4.68;;;5.70;99.90;;;;;;5110333;28;20487;-62
2022/01/23 08:31:33;;;;;;;5.75;3.45;;;5.80;99.90;;;;;;5091106;28;20036;-61
2022/01/23 08:33:59;;;;;;;7.75;4.63;;;5.90;99.90;;;;;;5110294;28;20084;-61
2022/01/23 08:36:24;;;;;;;7.38;4.35;;;6.10;99.90;;;;;;5108228;28;20028;-61
2022/01/23 08:38:50;;;;;;;12.18;4.38;;;6.30;99.90;;;;;;5110019;28;20030;-61
2022/01/23 08:43:44;;;;;;;6.13;4.43;;;6.30;99.90;;;;;;5102493;28;20107;-62
2022/01/23 08:46:10;;;;;;;8.68;5.13;;;6.30;99.90;;;;;;5108030;28;20110;-59
2022/01/23 08:48:35;;;;;;;8.40;5.10;;;6.30;99.90;;;;;;5091659;28;20119;-62
2022/01/23 08:51:01;;;;;;;7.90;5.35;;;6.30;99.90;;;;;;5109546;28;20262;-61
2022/01/23 08:53:26;;;;;;;7.07;4.80;;;6.30;99.90;;;;;;5088742;28;20051;-61
2022/01/23 08:55:52;;;;;;;6.63;4.72;;;6.40;99.90;;;;;;5108676;28;20035;-62
2022/01/23 08:58:18;;;;;;;7.20;5.00;;;6.30;99.90;;;;;;5107848;28;20028;-62
2022/01/23 09:00:43;;;;;;;7.93;5.00;;;6.30;99.90;;;;;;5109372;28;20027;-61
2022/01/23 09:03:08;;;;;;;7.00;4.93;;;6.30;99.90;;;;;;5098315;28;20020;-62
2022/01/23 09:05:34;;;;;;;7.38;5.00;;;6.30;99.90;;;;;;5108669;28;20039;-62
2022/01/23 09:08:00;;;;;;;7.55;4.43;;;6.40;99.90;;;;;;5107042;28;20140;-62
2022/01/23 09:10:28;;;;;;;7.45;5.30;;;6.60;99.90;;;;;;5109398;28;20085;-61
2022/01/23 09:15:30;;;;;;;6.55;4.10;;;6.70;99.90;;;;;;5089051;28;20042;-45
2022/01/23 09:17:55;;;;;;;7.25;4.85;;;7.00;99.90;;;;;;5107062;28;20092;-45
2022/01/23 09:20:21;;;;;;;7.85;4.45;;;7.20;99.90;;;;;;5108721;28;20063;-45
2022/01/23 09:22:47;;;;;;;6.88;3.95;;;7.50;99.90;;;;;;5093507;28;20039;-46
2022/01/23 09:25:12;;;;;;;5.65;4.32;;;7.60;99.90;;;;;;5108523;28;20119;-49
2022/01/23 09:27:39;;;;;;;6.60;4.40;;;7.80;99.90;;;;;;5107115;28;20072;-46
2022/01/23 09:30:16;;;;;;;7.57;4.60;;;7.80;99.90;;;;;;5108992;28;20054;-46
2022/01/23 09:32:43;;;;;;;7.03;4.50;;;7.90;99.90;;;;;;5098593;28;20323;-48
2022/01/23 09:35:09;;;;;;;5.85;4.25;;;8.00;99.90;;;;;;5108924;28;20077;-45
2022/01/23 09:37:35;;;;;;;6.40;4.55;;;8.10;99.90;;;;;;5095805;28;20036;-48
2022/01/23 09:40:00;;;;;;;6.22;4.55;;;8.00;99.90;;;;;;5108010;28;20019;-47
2022/01/23 09:42:42;;;;;;;6.30;4.57;;;7.90;99.90;;;;;;5104148;28;20026;-47
2022/01/23 09:45:11;;;;;;;4.82;3.67;;;7.90;99.90;;;;;;5089389;28;20127;-47
2022/01/23 09:47:37;;;;;;;6.10;4.03;;;7.80;99.90;;;;;;5107873;28;20031;-48
2022/01/23 09:50:05;;;;;;;6.13;4.13;;;7.90;99.90;;;;;;5109435;28;20039;-46
2022/01/23 09:52:34;;;;;;;5.78;4.03;;;7.90;99.90;;;;;;5107434;28;20024;-49
2022/01/23 09:55:07;;;;;;;5.68;3.72;;;7.80;99.90;;;;;;5109639;28;20088;-46
2022/01/23 09:57:35;;;;;;;4.82;3.20;;;7.80;99.90;;;;;;5099257;28;20114;-49
2022/01/23 10:00:03;;;;;;;4.65;3.45;;;7.60;99.90;;;;;;5104455;28;20039;-49
2022/01/23 10:02:29;;;;;;;5.40;3.47;;;7.50;99.90;;;;;;5089017;28;20044;-48
2022/01/23 10:04:55;;;;;;;4.45;3.03;;;7.40;99.90;;;;;;5106735;28;20078;-49
2022/01/23 10:07:21;;;;;;;5.95;3.40;;;7.30;99.90;;;;;;5109695;28;20077;-49
2022/01/23 10:09:53;;;;;;;5.00;3.15;;;7.20;99.90;;;;;;5109319;28;20331;-46
2022/01/23 10:12:20;;;;;;;4.45;3.53;;;7.10;99.90;;;;;;5109332;28;20491;-47
2022/01/23 10:14:46;;;;;;;4.30;3.22;;;7.10;99.90;;;;;;5109419;28;20077;-46
2022/01/23 10:17:11;;;;;;;5.97;3.50;;;7.10;99.90;;;;;;5107398;28;20027;-48
2022/01/23 10:19:39;;;;;;;4.32;3.28;;;7.10;99.90;;;;;;5108881;28;20039;-46
2022/01/23 10:22:06;;;;;;;6.13;2.97;;;7.20;99.90;;;;;;5107475;28;20020;-46
2022/01/23 10:24:32;;;;;;;4.57;3.30;;;7.30;99.90;;;;;;5109033;28;20036;-46
2022/01/23 10:26:59;;;;;;;4.85;3.78;;;7.20;99.90;;;;;;5089483;28;20115;-46
2022/01/23 10:29:33;;;;;;;4.63;3.47;;;7.20;99.90;;;;;;5106488;28;20032;-46
2022/01/23 10:32:21;;;;;;;5.45;3.83;;;7.20;99.90;;;;;;5097677;28;20077;-46
2022/01/23 10:34:56;;;;;;;5.07;3.63;;;7.10;99.90;;;;;;5088185;28;20019;-49
2022/01/23 10:37:24;;;;;;;7.22;3.72;;;7.10;99.90;;;;;;5106700;28;20066;-46
2022/01/23 10:39:50;;;;;;;5.20;3.30;;;7.10;99.90;;;;;;5104397;28;20118;-47
2022/01/23 10:42:51;;;;;;;4.88;3.03;;;7.10;99.90;;;;;;5103585;28;20123;-49
2022/01/23 10:50:52;;;;;;;4.15;2.97;;;7.30;99.90;;;;;;5098936;28;20062;-45
2022/01/23 10:53:18;;;;;;;4.45;3.42;;;7.20;99.90;;;;;;5111878;28;20027;-45
2022/01/23 10:55:44;;;;;;;3.33;2.80;;;7.20;99.90;;;;;;5098487;28;20281;-45
2022/01/23 10:58:24;;;;;;;6.28;3.72;;;7.20;99.90;;;;;;5111613;28;20104;-46
2022/01/23 11:00:50;;;;;;;5.55;3.17;;;7.20;99.90;;;;;;5106632;28;20080;-46
2022/01/23 11:03:26;;;;;;;5.18;3.38;;;7.40;99.90;;;;;;5109495;28;20035;-47
2022/01/23 11:05:52;;;;;;;;;;;7.60;99.90;;;;;;5102262;28;20071;-48
2022/01/23 11:08:30;;;;;;;5.57;3.15;;;7.70;99.90;;;;;;5108881;28;19935;-45
2022/01/23 11:11:03;;;;;;;5.65;3.50;;;7.70;99.90;;;;;;5100809;28;20320;-47
2022/01/23 11:19:19;;;;;;;5.10;2.60;;;7.70;99.90;;;;;;5097102;28;20093;-46
2022/01/23 11:21:45;;;;;;;5.28;3.17;;;7.60;99.90;;;;;;5109174;28;20032;-45
2022/01/23 11:24:12;;;;;;;3.63;2.42;;;7.60;99.90;;;;;;5107828;28;20032;-45
2022/01/23 11:26:39;;;;;;;4.85;3.03;;;7.50;99.90;;;;;;5095668;28;20059;-47
2022/01/23 11:29:09;;;;;;;5.18;3.03;;;7.40;99.90;;;;;;5110364;28;20390;-46
2022/01/23 11:31:36;;;;;;;4.38;2.60;;;7.30;99.90;;;;;;5109327;28;20031;-48
2022/01/23 11:34:05;;;;;;;5.30;3.40;;;7.30;99.90;;;;;;5111207;28;20048;-45
2022/01/23 11:36:30;;;;;;;5.22;2.80;;;7.30;99.90;;;;;;5105286;28;20679;-45
2022/01/23 11:39:03;;;;;;;4.07;2.83;;;7.30;99.90;;;;;;5108914;28;20088;-46
2022/01/23 11:55:32;;;;;;;3.88;3.20;;;7.30;99.90;;;;;;5103977;28;20066;-46
2022/01/23 11:57:59;;;;;;;4.93;2.65;;;7.30;99.90;;;;;;5096652;28;20128;-45
2022/01/23 12:00:27;;;;;;;4.07;2.83;;;7.40;99.90;;;;;;5109196;28;20114;-45
2022/01/23 12:03:11;;;;;;;3.80;2.40;;;7.40;99.90;;;;;;5095367;28;20020;-46
2022/01/23 12:05:39;;;;;;;3.83;2.58;;;7.50;99.90;;;;;;5105833;28;20267;-45
2022/01/23 12:08:32;;;;;;;4.97;2.80;;;7.50;99.90;;;;;;5097547;28;20031;-45
2022/01/23 12:16:53;;;;;;;5.10;3.28;;;7.50;99.90;;;;;;5103095;28;20035;-47
2022/01/23 12:20:02;;;;;;;4.13;2.88;;;7.50;99.90;;;;;;5105194;28;20566;-46
2022/01/23 12:23:14;;;;;;;;;;;7.50;99.90;;;;;;5094705;28;20036;-46
2022/01/23 12:26:38;;;;;;;3.80;2.75;;;7.50;99.90;;;;;;5093085;28;19920;-47
2022/01/23 12:30:03;;;;;;;5.32;2.92;;;7.50;99.90;;;;;;5105149;28;20126;-46
2022/01/23 12:33:29;;;;;;;4.95;3.42;;;7.40;99.90;;;;;;5103953;28;20409;-45
2022/01/23 12:36:13;;;;;;;5.07;2.92;;;7.40;99.90;;;;;;5100767;28;20442;-46
2022/01/23 12:39:08;;;;;;;3.63;2.80;;;7.30;99.90;;;;;;5103405;28;20518;-47
2022/01/23 12:42:27;;;;;;;5.57;3.03;;;7.20;99.90;;;;;;5098822;28;20182;-48
2022/01/23 12:45:31;;;;;;;6.03;3.00;;;7.20;99.90;;;;;;5067910;28;20094;-45
2022/01/23 12:48:25;;;;;;;4.40;2.60;;;7.10;99.90;;;;;;5103213;28;20609;-51
2022/01/23 12:51:17;;;;;;;3.22;2.40;;;7.10;99.90;;;;;;5090912;28;20512;-51
2022/01/23 12:54:02;;;;;;;3.17;2.22;;;7.10;99.90;;;;;;5103268;28;20077;-48
2022/01/23 12:57:34;;;;;;;2.70;2.15;;;7.20;99.90;;;;;;5090316;28;20044;-46
2022/01/23 13:00:56;;;;;;;3.22;2.35;;;7.20;99.90;;;;;;5107748;28;20043;-53
2022/01/23 13:04:21;;;;;;;3.38;1.95;;;7.20;99.90;;;;;;5097232;28;20096;-49
2022/01/23 13:08:06;;;;;;;2.50;1.70;;;7.30;99.90;;;;;;5102200;28;20039;-48
2022/01/23 13:11:50;;;;;;;3.22;2.38;;;7.40;99.90;;;;;;5102317;28;20031;-47
2022/01/23 13:15:12;;;;;;;3.03;1.70;;;7.30;99.90;;;;;;5102643;28;20047;-46
2022/01/23 13:18:41;;;;;;;1.63;1.50;;;7.40;99.90;;;;;;5101465;28;20451;-46
2022/01/23 13:32:37;;;;;;;1.92;1.35;;;7.60;99.90;;;;;;5087427;28;20078;-46
2022/01/23 13:35:50;;;;;;;3.63;2.05;;;7.60;99.90;;;;;;5100532;28;20028;-46
2022/01/23 13:39:09;;;;;;;2.67;1.67;;;7.60;99.90;;;;;;5106604;28;20038;-45
2022/01/23 13:52:25;;;;;;;4.15;2.25;;;7.60;99.90;;;;;;5096413;28;20581;-46
2022/01/23 13:59:02;;;;;;;3.20;1.67;;;7.50;99.90;;;;;;5099589;28;20445;-46
2022/01/23 14:02:26;;;;;;;2.90;1.65;;;7.40;99.90;;;;;;5100028;28;20055;-46
2022/01/23 14:05:51;;;;;;;2.20;1.58;;;7.40;99.90;;;;;;5103613;28;20491;-46
2022/01/23 14:09:24;;;;;;;1.92;1.42;;;7.30;99.90;;;;;;5107321;28;20037;-46
2022/01/23 14:12:48;;;;;;;1.73;1.45;;;7.40;99.90;;;;;;5104656;28;20067;-47
2022/01/23 14:16:14;;;;;;;5.57;2.08;;;7.30;99.90;;;;;;5102062;28;20599;-46
2022/01/23 14:19:47;;;;;;;2.70;1.98;;;7.30;99.90;;;;;;5093976;28;20032;-46
2022/01/23 14:23:12;;;;;;;2.15;1.95;;;7.20;99.90;;;;;;5107497;28;20040;-46
2022/01/23 14:26:37;;;;;;;5.00;2.25;;;7.10;99.90;;;;;;5101444;28;20074;-45
2022/01/23 14:30:06;;;;;;;3.28;1.92;;;7.10;99.90;;;;;;5088979;28;20496;-46
2022/01/23 14:33:11;;;;;;;;;;;7.10;99.90;;;;;;5107222;28;20501;-46
2022/01/23 14:36:17;;;;;;;2.92;1.77;;;7.10;99.90;;;;;;5090896;28;19912;-46
2022/01/23 14:39:42;;;;;;;2.95;1.40;;;7.00;99.90;;;;;;5108984;28;20444;-45
2022/01/23 14:43:19;;;;;;;3.95;1.85;;;7.10;99.90;;;;;;5095362;28;20055;-45
2022/01/23 14:46:48;;;;;;;1.52;1.40;;;7.00;99.90;;;;;;5102014;28;20086;-46
2022/01/23 14:49:58;;;;;;;;;;;7.00;99.90;;;;;;5096344;28;20953;-46
2022/01/23 14:53:18;;;;;;;2.08;1.50;;;6.90;99.90;;;;;;5104462;28;19914;-46
2022/01/23 14:56:43;;;;;;;2.05;1.65;;;6.90;99.90;;;;;;5103861;28;20035;-48
2022/01/23 15:00:09;;;;;;;2.90;1.85;;;6.90;99.90;;;;;;5105569;28;20491;-46
2022/01/23 15:03:34;;;;;;;4.03;2.42;;;6.80;99.90;;;;;;5094316;28;20166;-49
2022/01/23 15:07:02;;;;;;;2.08;1.48;;;6.80;99.90;;;;;;5105927;28;20048;-46
2022/01/23 15:10:28;;;;;;;2.03;1.30;;;6.70;99.90;;;;;;5105882;28;20032;-46
2022/01/23 15:13:53;;;;;;;9.27;6.70;;;6.80;99.90;;;;;;5088788;28;20035;-49
2022/01/23 15:16:40;;;;;;;3.17;2.30;;;6.70;99.90;;;;;;5102334;28;20044;-45
2022/01/23 15:19:07;;;;;;;2.60;2.13;;;6.70;99.90;;;;;;5106548;28;20040;-46
2022/01/23 15:21:34;;;;;;;1.25;1.10;;;6.70;99.90;;;;;;5109119;28;20028;-47
2022/01/23 15:24:00;;;;;;;1.63;1.13;;;6.70;99.90;;;;;;5108476;28;20024;-48
2022/01/23 15:26:30;;;;;;;1.40;1.23;;;6.60;99.90;;;;;;5107212;28;20070;-47
2022/01/23 15:28:56;;;;;;;1.80;0.80;;;6.60;99.90;;;;;;5088610;28;20068;-46
2022/01/23 15:31:23;;;;;;;1.40;1.10;;;6.60;99.90;;;;;;5109625;28;20051;-46
2022/01/23 15:33:49;;;;;;;0.80;0.80;;;6.60;99.90;;;;;;5112752;28;20042;-46
2022/01/23 15:36:14;;;;;;;1.90;0.98;;;6.50;99.90;;;;;;5093020;28;20036;-48
2022/01/23 15:38:43;;;;;;;1.27;0.85;;;6.50;99.90;;;;;;5112702;28;20136;-46
2022/01/23 15:41:09;;;;;;;0.70;0.70;;;6.40;99.90;;;;;;5093148;28;20145;-47
2022/01/23 15:43:35;;;;;;;1.90;0.52;;;6.40;99.90;;;;;;5104742;28;20400;-46
2022/01/23 15:46:01;;;;;;;0.80;0.63;;;6.40;99.90;;;;;;5110561;28;20131;-48
2022/01/23 15:48:30;;;;;;;1.00;0.90;;;6.40;99.90;;;;;;5112157;28;20098;-49
2022/01/23 15:50:57;;;;;;;0.82;0.68;;;6.40;99.90;;;;;;5094474;28;20495;-46
2022/01/23 15:53:23;;;;;;;0.77;0.60;;;6.40;99.90;;;;;;5111971;28;20028;-45
2022/01/23 15:55:49;;;;;;;1.65;0.60;;;6.40;99.90;;;;;;5110504;28;20024;-45
2022/01/23 15:58:14;;;;;;;0.95;0.60;;;6.30;99.90;;;;;;5112148;28;20030;-46
2022/01/23 16:00:40;;;;;;;0.52;0.50;;;6.30;99.90;;;;;;5107242;28;20427;-46
2022/01/23 16:03:05;;;;;;;1.45;0.77;;;6.30;99.90;;;;;;5111055;28;20031;-46
2022/01/23 16:05:31;;;;;;;0.90;0.47;;;6.30;99.90;;;;;;5098283;28;20044;-46
2022/01/23 16:07:56;;;;;;;1.35;0.90;;;6.30;99.90;;;;;;5111269;28;20118;-46
2022/01/23 16:10:22;;;;;;;1.17;1.08;;;6.30;99.90;;;;;;5110210;28;20036;-46
2022/01/23 16:12:47;;;;;;;1.70;1.60;;;6.30;99.90;;;;;;5110210;28;20035;-46
2022/01/23 16:15:53;;;;;;;1.30;1.20;;;6.30;99.90;;;;;;5105852;28;20055;-46
2022/01/23 16:19:18;;;;;;;1.48;1.38;;;6.30;99.90;;;;;;5103835;28;20046;-46
2022/01/23 16:22:44;;;;;;;2.28;1.35;;;6.20;99.90;;;;;;5109324;28;20039;-47
2022/01/23 16:26:09;;;;;;;0.77;0.77;;;6.20;99.90;;;;;;5105180;28;20534;-46
2022/01/23 16:29:34;;;;;;;1.85;0.80;;;6.20;99.90;;;;;;5111056;28;20046;-45
2022/01/23 16:33:00;;;;;;;1.40;1.00;;;6.20;99.90;;;;;;5104377;28;20043;-45
2022/01/23 16:36:25;;;;;;;1.05;0.90;;;6.30;99.90;;;;;;5106241;28;20086;-46
2022/01/23 16:39:50;;;;;;;1.80;1.40;;;6.20;99.90;;;;;;5111157;28;20046;-46
2022/01/23 16:43:16;;;;;;;1.80;1.00;;;6.20;99.90;;;;;;5103320;28;20036;-46
2022/01/23 16:46:41;;;;;;;2.00;0.95;;;6.20;99.90;;;;;;5093192;28;20044;-50
2022/01/23 16:50:07;;;;;;;2.75;1.15;;;6.20;99.90;;;;;;5090807;28;20032;-45
2022/01/23 16:53:32;;;;;;;5.72;3.50;;;6.20;99.90;;;;;;5108608;28;20070;-46
2022/01/23 16:56:57;;;;;;;2.25;2.05;;;6.10;99.90;;;;;;5108762;28;20027;-47
2022/01/23 17:00:23;;;;;;;11.48;4.03;;;6.10;99.90;;;;;;5104934;28;20031;-48
2022/01/23 17:03:48;;;;;;;20.60;8.30;;;6.10;99.90;;;;;;5104144;28;20627;-48
2022/01/23 17:07:13;;;;;;;11.27;5.53;;;6.10;99.90;;;;;;5108325;28;20040;-47
2022/01/23 17:10:39;;;;;;;5.47;3.53;;;6.10;99.90;;;;;;5104548;28;20046;-48
2022/01/23 17:14:04;;;;;;;3.10;2.65;;;6.10;99.90;;;;;;5102161;28;20051;-47
2022/01/23 17:17:29;;;;;;;3.10;2.42;;;6.10;99.90;;;;;;5100398;28;20066;-47
2022/01/23 17:20:55;;;;;;;5.72;3.28;;;6.10;99.90;;;;;;5101822;28;20066;-50
2022/01/23 17:24:20;;;;;;;5.95;3.10;;;6.10;99.90;;;;;;5105473;28;20039;-46
2022/01/23 17:27:45;;;;;;;7.60;4.00;;;6.00;99.90;;;;;;5101360;28;20140;-46
2022/01/23 17:31:11;;;;;;;4.97;3.00;;;6.00;99.90;;;;;;5100288;28;20114;-46
2022/01/23 17:34:36;;;;;;;3.72;2.28;;;6.00;99.90;;;;;;5107507;28;20494;-48
2022/01/23 17:38:02;;;;;;;2.63;1.77;;;6.10;99.90;;;;;;5104673;28;20044;-48
2022/01/23 17:41:27;;;;;;;1.80;1.20;;;6.00;99.90;;;;;;5100177;28;20063;-47
2022/01/23 17:44:53;;;;;;;2.17;1.60;;;6.00;99.90;;;;;;5083349;28;20695;-46
2022/01/23 17:51:42;;;;;;;2.50;1.92;;;6.00;99.90;;;;;;5093195;28;20088;-50